createdAt,value
2022-09-18T00:01:40.094Z,101264.00
2022-09-18T00:04:13.398Z,101264.40
2022-09-18T00:06:44.818Z,101256.20
2022-09-18T00:09:14.867Z,101258.40
2022-09-18T00:11:47.537Z,101260.80
2022-09-18T00:14:23.361Z,101261.00
2022-09-18T00:16:51.406Z,101260.80
2022-09-18T00:19:20.124Z,101265.40
2022-09-18T00:21:51.286Z,101266.00
2022-09-18T00:24:20.354Z,101268.20
2022-09-18T00:26:48.767Z,101274.40
2022-09-18T00:29:18.006Z,101275.80
2022-09-18T00:31:46.440Z,101271.00
2022-09-18T00:34:15.709Z,101269.40
2022-09-18T00:36:44.160Z,101273.40
2022-09-18T00:39:12.991Z,101268.20
2022-09-18T00:41:43.183Z,101267.60
2022-09-18T00:44:46.563Z,101265.20
2022-09-18T00:47:29.506Z,101263.60
2022-09-18T00:50:13.084Z,101261.00
2022-09-18T00:53:05.862Z,101262.20
2022-09-18T00:55:40.319Z,101260.20
2022-09-18T00:58:09.553Z,101261.20
2022-09-18T01:00:38.459Z,101259.00
2022-09-18T01:03:06.554Z,101265.40
2022-09-18T01:06:10.902Z,101266.80
2022-09-18T01:08:55.022Z,101264.40
2022-09-18T01:11:56.786Z,101267.40
2022-09-18T01:14:33.325Z,101267.20
2022-09-18T01:17:15.568Z,101263.60
2022-09-18T01:19:55.312Z,101260.00
2022-09-18T01:22:40.229Z,101266.00
2022-09-18T01:25:31.246Z,101266.40
2022-09-18T01:28:20.903Z,101255.40
2022-09-18T01:30:55.750Z,101253.60
2022-09-18T01:33:55.870Z,101250.80
2022-09-18T01:36:28.189Z,101253.00
2022-09-18T01:39:17.250Z,101251.20
2022-09-18T01:41:51.289Z,101247.80
2022-09-18T01:44:31.402Z,101247.00
2022-09-18T01:47:10.094Z,101247.00
2022-09-18T01:49:46.672Z,101246.80
2022-09-18T01:52:31.005Z,101248.00
2022-09-18T01:55:02.318Z,101247.80
2022-09-18T01:57:48.888Z,101244.40
2022-09-18T02:00:17.173Z,101247.40
2022-09-18T02:02:55.146Z,101245.20
2022-09-18T02:05:40.837Z,101242.00
2022-09-18T02:08:26.950Z,101235.80
2022-09-18T02:11:07.106Z,101232.20
2022-09-18T02:13:46.202Z,101228.20
2022-09-18T02:16:28.135Z,101231.80
2022-09-18T02:19:00.191Z,101227.20
2022-09-18T02:21:30.973Z,101228.20
2022-09-18T02:24:09.320Z,101233.80
2022-09-18T02:26:40.393Z,101233.80
2022-09-18T02:29:13.103Z,101224.40
2022-09-18T02:31:41.554Z,101228.80
2022-09-18T02:34:12.838Z,101227.20
2022-09-18T02:36:57.600Z,101224.80
2022-09-18T02:40:16.731Z,101227.40
2022-09-18T02:43:02.861Z,101225.60
2022-09-18T02:45:44.422Z,101221.40
2022-09-18T02:48:27.654Z,101223.20
2022-09-18T02:51:29.003Z,101220.60
2022-09-18T02:54:06.083Z,101220.80
2022-09-18T02:56:50.656Z,101220.00
2022-09-18T02:59:30.897Z,101214.40
2022-09-18T03:02:00.020Z,101204.80
2022-09-18T03:04:30.076Z,101208.20
2022-09-18T03:07:01.846Z,101199.40
2022-09-18T03:09:34.606Z,101200.20
2022-09-18T03:12:03.133Z,101197.80
2022-09-18T03:14:35.346Z,101197.80
2022-09-18T03:17:03.865Z,101197.20
2022-09-18T03:19:32.738Z,101188.60
2022-09-18T03:22:01.710Z,101194.40
2022-09-18T03:24:31.122Z,101191.00
2022-09-18T03:26:59.221Z,101183.40
2022-09-18T03:29:28.534Z,101182.60
2022-09-18T03:31:57.267Z,101183.80
2022-09-18T03:34:25.395Z,101182.80
2022-09-18T03:36:53.046Z,101183.00
2022-09-18T03:39:20.744Z,101175.60
2022-09-18T03:41:50.925Z,101173.60
2022-09-18T03:44:18.571Z,101181.80
2022-09-18T03:46:46.870Z,101178.80
2022-09-18T03:49:14.785Z,101180.20
2022-09-18T03:51:43.668Z,101178.00
2022-09-18T03:54:14.549Z,101181.80
2022-09-18T03:56:51.647Z,101181.20
2022-09-18T03:59:36.111Z,101174.40
2022-09-18T04:02:27.155Z,101181.60
2022-09-18T04:05:15.366Z,101174.20
2022-09-18T04:08:05.147Z,101178.00
2022-09-18T04:10:51.809Z,101182.20
2022-09-18T04:13:20.631Z,101175.60
2022-09-18T04:15:50.416Z,101182.20
2022-09-18T04:18:18.665Z,101181.20
2022-09-18T04:20:46.693Z,101181.80
2022-09-18T04:23:14.680Z,101181.00
2022-09-18T04:25:43.008Z,101181.00
2022-09-18T04:28:11.387Z,101178.40
2022-09-18T04:30:45.966Z,101176.20
2022-09-18T04:33:15.987Z,101176.80
2022-09-18T04:35:44.031Z,101176.60
2022-09-18T04:38:12.213Z,101179.80
2022-09-18T04:40:39.980Z,101179.80
2022-09-18T04:43:10.319Z,101181.00
2022-09-18T04:45:40.134Z,101178.40
2022-09-18T04:48:08.509Z,101175.20
2022-09-18T04:50:36.914Z,101174.60
2022-09-18T04:53:10.310Z,101176.60
2022-09-18T04:55:39.901Z,101174.20
2022-09-18T04:58:09.948Z,101178.60
2022-09-18T05:00:38.346Z,101176.00
2022-09-18T05:03:08.171Z,101179.80
2022-09-18T05:05:38.754Z,101179.00
2022-09-18T05:08:06.741Z,101183.20
2022-09-18T05:10:35.221Z,101184.40
2022-09-18T05:13:03.339Z,101175.80
2022-09-18T05:15:31.334Z,101175.00
2022-09-18T05:18:09.070Z,101177.40
2022-09-18T05:20:39.729Z,101168.80
2022-09-18T05:23:08.777Z,101173.20
2022-09-18T05:25:37.172Z,101169.40
2022-09-18T05:28:05.458Z,101169.00
2022-09-18T05:30:38.580Z,101165.00
2022-09-18T05:33:07.842Z,101169.60
2022-09-18T05:35:39.776Z,101170.00
2022-09-18T05:38:09.977Z,101169.00
2022-09-18T05:40:38.894Z,101174.40
2022-09-18T05:43:07.354Z,101176.40
2022-09-18T05:45:35.284Z,101179.60
2022-09-18T05:48:07.791Z,101175.80
2022-09-18T05:50:36.568Z,101179.60
2022-09-18T05:53:16.998Z,101181.20
2022-09-18T05:55:55.186Z,101182.80
2022-09-18T05:58:23.146Z,101189.80
2022-09-18T06:00:52.473Z,101187.40
2022-09-18T06:03:22.600Z,101193.80
2022-09-18T06:05:53.789Z,101189.20
2022-09-18T06:08:22.675Z,101188.40
2022-09-18T06:10:50.769Z,101189.60
2022-09-18T06:13:18.978Z,101187.80
2022-09-18T06:15:54.391Z,101188.40
2022-09-18T06:18:31.258Z,101190.40
2022-09-18T06:20:59.569Z,101195.00
2022-09-18T06:23:29.609Z,101198.40
2022-09-18T06:26:09.421Z,101194.20
2022-09-18T06:28:40.624Z,101197.00
2022-09-18T06:31:10.846Z,101202.20
2022-09-18T06:33:50.212Z,101201.00
2022-09-18T06:36:17.910Z,101201.20
2022-09-18T06:38:59.187Z,101201.80
2022-09-18T06:41:27.058Z,101204.60
2022-09-18T06:43:55.882Z,101202.00
2022-09-18T06:46:32.656Z,101206.00
2022-09-18T06:49:10.297Z,101210.80
2022-09-18T06:51:42.384Z,101216.80
2022-09-18T06:54:13.229Z,101216.20
2022-09-18T06:56:42.194Z,101214.60
2022-09-18T06:59:11.449Z,101213.80
2022-09-18T07:01:40.345Z,101214.60
2022-09-18T07:04:21.870Z,101210.60
2022-09-18T07:06:49.493Z,101206.60
2022-09-18T07:09:17.310Z,101207.40
2022-09-18T07:11:54.885Z,101209.00
2022-09-18T07:14:28.401Z,101200.20
2022-09-18T07:16:59.650Z,101195.00
2022-09-18T07:19:27.723Z,101195.60
2022-09-18T07:21:55.343Z,101194.00
2022-09-18T07:24:23.057Z,101188.60
2022-09-18T07:26:50.791Z,101198.40
2022-09-18T07:29:18.594Z,101199.40
2022-09-18T07:31:46.279Z,101199.60
2022-09-18T07:34:14.397Z,101197.60
2022-09-18T07:36:42.173Z,101195.60
2022-09-18T07:39:09.920Z,101203.80
2022-09-18T07:41:56.597Z,101204.40
2022-09-18T07:44:26.097Z,101201.40
2022-09-18T07:46:55.424Z,101201.60
2022-09-18T07:49:23.634Z,101197.80
2022-09-18T07:51:52.456Z,101193.60
2022-09-18T07:54:20.198Z,101187.80
2022-09-18T07:57:14.319Z,101191.00
2022-09-18T07:59:54.058Z,101196.80
2022-09-18T08:02:23.061Z,101201.20
2022-09-18T08:04:51.916Z,101203.60
2022-09-18T08:07:40.773Z,101195.20
2022-09-18T08:10:15.978Z,101193.20
2022-09-18T08:13:04.496Z,101198.80
2022-09-18T08:16:04.091Z,101195.00
2022-09-18T08:18:52.096Z,101201.40
2022-09-18T08:21:52.209Z,101201.60
2022-09-18T08:24:20.077Z,101201.60
2022-09-18T08:26:47.757Z,101207.60
2022-09-18T08:29:19.143Z,101210.40
2022-09-18T08:31:51.831Z,101205.40
2022-09-18T08:34:19.565Z,101204.80
2022-09-18T08:36:47.282Z,101203.00
2022-09-18T08:39:47.061Z,101207.60
2022-09-18T08:43:21.345Z,101205.80
2022-09-18T08:46:18.347Z,101203.20
2022-09-18T08:49:05.139Z,101206.20
2022-09-18T08:51:52.278Z,101211.60
2022-09-18T08:54:45.317Z,101208.40
2022-09-18T08:57:51.127Z,101202.00
2022-09-18T09:00:36.131Z,101200.00
2022-09-18T09:04:00.841Z,101201.40
2022-09-18T09:07:03.678Z,101203.20
2022-09-18T09:10:27.517Z,101209.00
2022-09-18T09:13:07.667Z,101212.00
2022-09-18T09:16:07.227Z,101215.20
2022-09-18T09:18:49.020Z,101212.20
2022-09-18T09:21:40.997Z,101206.00
2022-09-18T09:24:40.832Z,101207.60
2022-09-18T09:27:52.602Z,101203.80
2022-09-18T09:30:47.141Z,101209.80
2022-09-18T09:33:34.631Z,101210.00
2022-09-18T09:36:29.429Z,101203.60
2022-09-18T09:39:23.572Z,101203.20
2022-09-18T09:41:59.286Z,101210.20
2022-09-18T09:45:14.213Z,101197.20
2022-09-18T09:47:58.533Z,101195.60
2022-09-18T09:50:46.530Z,101197.60
2022-09-18T09:53:14.229Z,101189.40
2022-09-18T09:56:09.194Z,101192.80
2022-09-18T09:59:14.595Z,101176.40
2022-09-18T10:02:34.458Z,101188.00
2022-09-18T10:05:22.110Z,101186.00
2022-09-18T10:08:02.911Z,101189.40
2022-09-18T10:10:49.122Z,101184.80
2022-09-18T10:13:26.203Z,101177.60
2022-09-18T10:16:09.767Z,101178.80
2022-09-18T10:18:43.999Z,101181.20
2022-09-18T10:21:23.840Z,101185.00
2022-09-18T10:24:22.246Z,101187.80
2022-09-18T10:27:03.531Z,101184.40
2022-09-18T10:29:35.613Z,101187.00
2022-09-18T10:32:06.814Z,101182.20
2022-09-18T10:34:45.915Z,101181.80
2022-09-18T10:37:29.919Z,101185.20
2022-09-18T10:40:32.899Z,101189.20
2022-09-18T10:43:02.578Z,101199.40
2022-09-18T10:45:38.062Z,101202.00
2022-09-18T10:48:27.661Z,101203.60
2022-09-18T10:51:04.274Z,101196.00
2022-09-18T10:53:42.388Z,101188.60
2022-09-18T10:56:20.855Z,101181.60
2022-09-18T10:58:51.024Z,101184.20
2022-09-18T11:01:19.974Z,101176.60
2022-09-18T11:04:06.592Z,101183.00
2022-09-18T11:06:45.410Z,101178.40
2022-09-18T11:09:36.974Z,101171.20
2022-09-18T11:12:05.707Z,101178.80
2022-09-18T11:14:44.808Z,101173.40
2022-09-18T11:17:27.715Z,101176.20
2022-09-18T11:19:58.534Z,101184.80
2022-09-18T11:22:42.670Z,101164.60
2022-09-18T11:25:26.499Z,101164.00
2022-09-18T11:28:00.295Z,101167.40
2022-09-18T11:30:38.604Z,101165.80
2022-09-18T11:33:25.201Z,101167.40
2022-09-18T11:36:10.832Z,101162.00
2022-09-18T11:38:46.793Z,101168.40
2022-09-18T11:41:24.764Z,101170.60
2022-09-18T11:44:04.782Z,101166.60
2022-09-18T11:47:19.831Z,101160.20
2022-09-18T11:50:16.133Z,101163.00
2022-09-18T11:52:50.901Z,101167.60
2022-09-18T11:55:30.955Z,101164.80
2022-09-18T11:58:09.369Z,101164.60
2022-09-18T12:00:47.554Z,101177.80
2022-09-18T12:03:24.536Z,101174.40
2022-09-18T12:05:55.925Z,101169.20
2022-09-18T12:08:57.241Z,101170.60
2022-09-18T12:11:41.191Z,101178.60
2022-09-18T12:14:52.016Z,101174.20
2022-09-18T12:17:45.688Z,101188.80
2022-09-18T12:20:35.933Z,101175.80
2022-09-18T12:23:04.777Z,101181.20
2022-09-18T12:26:03.173Z,101184.00
2022-09-18T12:29:31.178Z,101187.00
2022-09-18T12:32:38.218Z,101189.40
2022-09-18T12:35:40.317Z,101193.20
2022-09-18T12:38:23.020Z,101189.80
2022-09-18T12:41:00.717Z,101191.60
2022-09-18T12:43:59.259Z,101194.80
2022-09-18T12:47:00.537Z,101184.20
2022-09-18T12:49:57.614Z,101182.60
2022-09-18T12:53:09.839Z,101185.00
2022-09-18T12:55:56.057Z,101187.80
2022-09-18T12:58:38.575Z,101182.80
2022-09-18T13:01:33.306Z,101186.60
2022-09-18T13:04:37.109Z,101179.20
2022-09-18T13:07:19.830Z,101174.20
2022-09-18T13:09:55.744Z,101188.40
2022-09-18T13:12:44.714Z,101180.00
2022-09-18T13:15:21.409Z,101178.60
2022-09-18T13:18:41.591Z,101169.00
2022-09-18T13:21:34.494Z,101190.60
2022-09-18T13:24:05.538Z,101180.20
2022-09-18T13:26:38.357Z,101179.60
2022-09-18T13:29:56.904Z,101181.40
2022-09-18T13:32:40.341Z,101182.00
2022-09-18T13:35:14.009Z,101170.60
2022-09-18T13:37:43.809Z,101169.40
2022-09-18T13:40:33.288Z,101163.40
2022-09-18T13:43:22.765Z,101163.40
2022-09-18T13:45:50.932Z,101164.00
2022-09-18T13:48:46.396Z,101155.60
2022-09-18T13:51:31.119Z,101164.40
2022-09-18T13:54:11.312Z,101160.00
2022-09-18T13:57:03.914Z,101160.00
2022-09-18T13:59:53.018Z,101152.40
2022-09-18T14:02:34.550Z,101157.00
2022-09-18T14:05:35.047Z,101156.80
2022-09-18T14:08:24.154Z,101158.00
2022-09-18T14:11:16.751Z,101158.60
2022-09-18T14:13:58.862Z,101158.20
2022-09-18T14:16:40.823Z,101162.60
2022-09-18T14:19:36.204Z,101166.60
2022-09-18T14:22:04.191Z,101162.60
2022-09-18T14:24:56.277Z,101167.80
2022-09-18T14:27:31.973Z,101168.80
2022-09-18T14:30:13.877Z,101172.60
2022-09-18T14:33:16.100Z,101167.00
2022-09-18T14:36:04.630Z,101174.00
2022-09-18T14:38:36.019Z,101181.00
2022-09-18T14:41:22.946Z,101187.40
2022-09-18T14:44:04.016Z,101188.60
2022-09-18T14:46:32.870Z,101179.80
2022-09-18T14:49:02.655Z,101178.20
2022-09-18T14:51:44.911Z,101175.60
2022-09-18T14:54:25.315Z,101163.80
2022-09-18T14:56:59.776Z,101163.60
2022-09-18T14:59:29.213Z,101162.40
2022-09-18T15:02:31.566Z,101161.40
2022-09-18T15:05:03.333Z,101160.80
2022-09-18T15:07:31.058Z,101154.00
2022-09-18T15:10:02.439Z,101158.80
2022-09-18T15:12:32.645Z,101156.60
2022-09-18T15:15:00.344Z,101152.00
2022-09-18T15:17:28.668Z,101152.00
2022-09-18T15:20:16.962Z,101150.40
2022-09-18T15:22:44.692Z,101156.20
2022-09-18T15:25:17.628Z,101155.40
2022-09-18T15:27:46.287Z,101156.80
2022-09-18T15:30:25.702Z,101155.00
2022-09-18T15:33:18.719Z,101163.60
2022-09-18T15:35:52.465Z,101159.40
2022-09-18T15:38:26.843Z,101153.40
2022-09-18T15:40:54.901Z,101157.60
2022-09-18T15:43:28.474Z,101149.80
2022-09-18T15:46:06.949Z,101158.20
2022-09-18T15:48:48.114Z,101155.20
2022-09-18T15:51:25.425Z,101156.00
2022-09-18T15:54:12.178Z,101151.20
2022-09-18T15:56:51.293Z,101152.20
2022-09-18T15:59:38.565Z,101147.40
2022-09-18T16:02:30.624Z,101147.00
2022-09-18T16:05:12.311Z,101146.20
2022-09-18T16:07:57.449Z,101144.40
2022-09-18T16:10:34.518Z,101144.80
2022-09-18T16:13:15.655Z,101145.40
2022-09-18T16:15:52.045Z,101140.80
2022-09-18T16:18:29.002Z,101140.40
2022-09-18T16:20:57.777Z,101137.00
2022-09-18T16:23:37.121Z,101137.20
2022-09-18T16:26:21.503Z,101135.40
2022-09-18T16:28:52.232Z,101135.20
2022-09-18T16:31:23.559Z,101133.60
2022-09-18T16:33:57.213Z,101130.80
2022-09-18T16:36:28.624Z,101143.20
2022-09-18T16:38:57.415Z,101135.20
2022-09-18T16:41:25.046Z,101130.60
2022-09-18T16:43:53.867Z,101133.20
2022-09-18T16:46:27.855Z,101134.40
2022-09-18T16:48:56.294Z,101133.60
2022-09-18T16:51:23.982Z,101136.00
2022-09-18T16:53:51.738Z,101137.00
2022-09-18T16:56:28.561Z,101137.20
2022-09-18T16:58:59.237Z,101147.00
2022-09-18T17:01:39.580Z,101145.00
2022-09-18T17:04:16.604Z,101146.60
2022-09-18T17:06:44.332Z,101142.60
2022-09-18T17:09:11.977Z,101144.40
2022-09-18T17:11:39.694Z,101150.80
2022-09-18T17:14:07.729Z,101148.60
2022-09-18T17:16:44.630Z,101152.60
2022-09-18T17:19:13.546Z,101148.00
2022-09-18T17:21:41.661Z,101152.80
2022-09-18T17:24:10.734Z,101153.80
2022-09-18T17:26:40.852Z,101149.20
2022-09-18T17:29:11.324Z,101148.20
2022-09-18T17:31:39.104Z,101148.60
2022-09-18T17:34:07.324Z,101157.40
2022-09-18T17:36:38.059Z,101160.20
2022-09-18T17:39:06.384Z,101163.20
2022-09-18T17:41:34.722Z,101161.20
2022-09-18T17:44:02.890Z,101164.60
2022-09-18T17:46:31.239Z,101166.40
2022-09-18T17:48:59.968Z,101167.20
2022-09-18T17:51:29.334Z,101172.40
2022-09-18T17:54:02.804Z,101174.80
2022-09-18T17:56:32.587Z,101176.40
2022-09-18T17:59:05.470Z,101176.60
2022-09-18T18:01:37.532Z,101177.60
2022-09-18T18:04:06.856Z,101186.20
2022-09-18T18:06:36.932Z,101190.20
2022-09-18T18:09:09.547Z,101189.80
2022-09-18T18:11:38.021Z,101187.60
2022-09-18T18:14:05.905Z,101187.60
2022-09-18T18:16:34.853Z,101188.80
2022-09-18T18:19:08.117Z,101191.60
2022-09-18T18:21:35.885Z,101192.00
2022-09-18T18:24:11.774Z,101194.60
2022-09-18T18:26:40.290Z,101196.60
2022-09-18T18:29:12.987Z,101193.40
2022-09-18T18:31:43.352Z,101199.60
2022-09-18T18:34:12.284Z,101200.80
2022-09-18T18:36:42.020Z,101209.20
2022-09-18T18:39:12.971Z,101216.60
2022-09-18T18:41:42.398Z,101228.80
2022-09-18T18:44:11.414Z,101234.60
2022-09-18T18:46:40.174Z,101238.60
2022-09-18T18:49:11.789Z,101246.80
2022-09-18T18:51:47.529Z,101258.80
2022-09-18T18:54:19.637Z,101260.60
2022-09-18T18:56:49.111Z,101265.80
2022-09-18T18:59:19.289Z,101261.60
2022-09-18T19:01:47.660Z,101267.00
2022-09-18T19:04:21.190Z,101270.20
2022-09-18T19:06:49.605Z,101279.00
2022-09-18T19:09:26.313Z,101284.20
2022-09-18T19:11:55.510Z,101288.20
2022-09-18T19:14:31.557Z,101287.00
2022-09-18T19:17:00.184Z,101289.20
2022-09-18T19:19:29.002Z,101296.20
2022-09-18T19:22:00.010Z,101293.80
2022-09-18T19:24:30.041Z,101299.60
2022-09-18T19:26:58.960Z,101297.80
2022-09-18T19:29:27.863Z,101301.60
2022-09-18T19:31:57.612Z,101303.00
2022-09-18T19:34:25.821Z,101307.40
2022-09-18T19:36:53.637Z,101304.00
2022-09-18T19:39:23.879Z,101303.00
2022-09-18T19:42:14.792Z,101308.00
2022-09-18T19:44:57.316Z,101298.80
2022-09-18T19:47:40.962Z,101296.00
2022-09-18T19:50:21.434Z,101304.20
2022-09-18T19:52:51.395Z,101302.00
2022-09-18T19:55:20.814Z,101299.80
2022-09-18T19:57:51.982Z,101299.60
2022-09-18T20:00:20.360Z,101306.00
2022-09-18T20:02:47.989Z,101307.00
2022-09-18T20:05:19.585Z,101306.00
2022-09-18T20:07:50.057Z,101311.20
2022-09-18T20:10:22.894Z,101312.80
2022-09-18T20:12:52.579Z,101313.40
2022-09-18T20:15:20.525Z,101313.40
2022-09-18T20:17:48.551Z,101318.00
2022-09-18T20:20:16.734Z,101318.00
2022-09-18T20:22:44.764Z,101324.40
2022-09-18T20:25:15.863Z,101326.00
2022-09-18T20:27:43.880Z,101328.40
2022-09-18T20:30:12.828Z,101325.60
2022-09-18T20:32:41.150Z,101329.60
2022-09-18T20:35:09.968Z,101332.80
2022-09-18T20:37:38.349Z,101332.20
2022-09-18T20:40:12.555Z,101332.20
2022-09-18T20:42:40.615Z,101335.00
2022-09-18T20:45:08.716Z,101332.20
2022-09-18T20:47:37.517Z,101339.20
2022-09-18T20:50:13.396Z,101336.00
2022-09-18T20:52:43.552Z,101338.40
2022-09-18T20:55:15.751Z,101340.40
2022-09-18T20:57:44.887Z,101344.60
2022-09-18T21:00:16.089Z,101343.60
2022-09-18T21:02:49.625Z,101349.00
2022-09-18T21:05:17.639Z,101350.80
2022-09-18T21:07:45.683Z,101358.20
2022-09-18T21:10:14.833Z,101357.20
2022-09-18T21:12:43.025Z,101360.40
2022-09-18T21:15:15.726Z,101359.80
2022-09-18T21:17:43.522Z,101357.00
2022-09-18T21:20:12.085Z,101357.20
2022-09-18T21:22:59.747Z,101367.00
2022-09-18T21:25:31.049Z,101369.40
2022-09-18T21:27:58.759Z,101367.40
2022-09-18T21:30:26.662Z,101363.80
2022-09-18T21:32:55.719Z,101368.40
2022-09-18T21:35:23.753Z,101367.80
2022-09-18T21:37:51.984Z,101364.40
2022-09-18T21:40:19.669Z,101364.40
2022-09-18T21:42:47.624Z,101371.20
2022-09-18T21:45:19.486Z,101369.80
2022-09-18T21:47:49.701Z,101380.60
2022-09-18T21:50:17.583Z,101382.00
2022-09-18T21:52:45.210Z,101385.80
2022-09-18T21:55:12.861Z,101383.20
2022-09-18T21:57:40.573Z,101381.00
2022-09-18T22:00:09.779Z,101384.60
2022-09-18T22:02:43.217Z,101386.80
2022-09-18T22:05:12.140Z,101384.20
2022-09-18T22:07:40.852Z,101388.80
2022-09-18T22:10:09.327Z,101389.20
2022-09-18T22:12:38.976Z,101387.60
2022-09-18T22:15:07.354Z,101391.60
2022-09-18T22:17:35.054Z,101394.40
2022-09-18T22:20:02.963Z,101395.20
2022-09-18T22:22:30.645Z,101394.80
2022-09-18T22:24:58.448Z,101396.80
2022-09-18T22:27:26.104Z,101400.80
2022-09-18T22:29:53.819Z,101399.40
2022-09-18T22:32:22.325Z,101402.40
2022-09-18T22:34:52.550Z,101405.00
2022-09-18T22:37:20.267Z,101404.60
2022-09-18T22:39:47.935Z,101408.00
2022-09-18T22:42:15.877Z,101402.00
2022-09-18T22:44:43.974Z,101405.40
2022-09-18T22:47:11.810Z,101407.00
2022-09-18T22:49:39.512Z,101406.40
2022-09-18T22:52:07.445Z,101411.60
2022-09-18T22:54:35.113Z,101411.60
2022-09-18T22:57:02.977Z,101415.60
2022-09-18T22:59:30.788Z,101416.40
2022-09-18T23:02:04.498Z,101420.80
2022-09-18T23:04:33.722Z,101419.00
2022-09-18T23:07:03.273Z,101422.80
2022-09-18T23:09:31.170Z,101420.40
2022-09-18T23:11:59.747Z,101417.00
2022-09-18T23:14:31.228Z,101420.20
2022-09-18T23:17:00.568Z,101415.20
2022-09-18T23:19:34.194Z,101416.60
2022-09-18T23:22:02.542Z,101424.20
2022-09-18T23:24:31.580Z,101423.60
2022-09-18T23:26:59.298Z,101428.20
2022-09-18T23:29:29.132Z,101430.40
2022-09-18T23:31:59.714Z,101431.20
2022-09-18T23:34:31.406Z,101424.40
2022-09-18T23:37:00.678Z,101427.60
2022-09-18T23:39:32.371Z,101430.00
2022-09-18T23:42:02.579Z,101430.80
2022-09-18T23:44:31.361Z,101431.00
2022-09-18T23:47:00.502Z,101426.60
2022-09-18T23:49:29.760Z,101422.80
2022-09-18T23:51:59.395Z,101421.60
2022-09-18T23:54:30.839Z,101422.40
2022-09-18T23:56:58.702Z,101425.60
2022-09-18T23:59:27.560Z,101423.60
